KOSA

Details ICAO KOSA
Name MOUNT PLEASANT RGNL
Region United States
Timezone America/Chicago (UTC-6.0)
Plans Departing 1
Arriving 3
Stats Elevation 363 ft / 111 m (AMSL)
Location 33.095532° -94.961517°
Runways 1
Magnetic Variation 2.140° E
Sunrise 2017-12-18 13:18:58 UTC / 2017-12-18 07:18:58 Local
Sunset 2017-12-18 23:16:55 UTC / 2017-12-18 17:16:55 Local
Advertisement - Login to hide

Runways

ID Width Length Bearing (true) Bearing (mag) Surface Threshold Offset Overrun Length
17 75 ft / 23 m 5,014 ft / 1,528 m 172.04° 169.90° Asphalt 0 ft / 0 m 0 ft / 0 m
35 75 ft / 23 m 5,014 ft / 1,528 m 352.04° 349.90° Asphalt 0 ft / 0 m 0 ft / 0 m

Map

Weather


0- 5 10 15 20 25 30 35+ Temperature / ° C

Clouds and Precipitation
Forecast for 2017-12-19 00:00 UTC. Updated an hour ago

Ground ~20,000 ft ~40,000 ft Winds

METAR

KOSA 182035Z AUTO 09004KT 4SM OVC006 11/10 A3017 RMK AO1 T01080099

TAF

Not found

Frequencies

Recorded 119.77 MHz AWOS 3
Approach 132.85 MHz FORT WORTH CNTR
Unicom 122.70 MHz CTAF/UNICOM
Warning: Do not use this data for real-world aviation or navigation. No guarantee of current accuracy is given.